Bovee, South Dakota
Current Conditions -  °F | °C
As of 1:14 PM on Saturday 20 Dec 2014 (Local Time) from KMHE Reporting Station
Haze Haze  
Wind Chill: 23°   Ceiling: 300
Heat Index: 31°   Visibility: 2mi
Dew Point: 29°   Wind: 9mph
Humidity: 92%   Direction: 180°S
Pressure: 30.01"   Gusts: NA
Location:  43.2601°N, 98.6864°W
Report Text: KMHE 201914Z AUTO 18008KT 2SM BR OVC003 M01/M02 A3001 RMK AO2 T10061017
Loading
Personal Weather Stations






























Interactive Weather Map New forecast layout! Learn more

10-Day Weather Forecast

Advertisements
Track Severe Weather on mobile